METAR Formatted Surface Weather Observation
Issued by NWS

Home | Current Version | Previous Version | Text Only | Print | Product List | Glossary On
Versions: 1 2 3 4 5 6 7 8 9 10 11 12 13 14 15 16 17 18 19
000
SAUS45 KFGZ 310358 COR
MTRRQE
METAR KRQE 310353Z AUTO 00000KT 10SM CLR 23/06 A3027 RMK AO2 SLP113
T02280061 TSNO



USA.gov is the U.S. government's official web portal to all federal, state and local government web resources and services.